CDI weather

Cachoeiro do Itapemirim Airport
Cachoeiro Do Itapemirim, EspĂ­rito Santo, Brazil

Public forecast

Using degrees Celsius for public forecast. Weather courtesy of forecast.io.

Closest aviation weather report (METAR) to Cachoeiro do Itapemirim Airport

Closest report is Bartolomeu Lisandro Airport, 52.3 nm (96.8 km) S. Retrieved 2020/07/12 09:15 UTC (17 minutes ago):

SBCP 120915Z 00000KT CAVOK 17/16 Q1017

Closest aviation forecast (TAF) to Cachoeiro do Itapemirim Airport

Closest forecast is Bartolomeu Lisandro Airport, 52.3 nm (96.8 km) S. Retrieved 2020/07/12 06:00 UTC (4 hours ago):

TAF SBCP 120300Z 1206/1218 05012KT CAVOK TN16/1206Z TX30/1217Z BECMG 1209/1211 35012KT RMK PDZ